Time;durP1;ratioP1;P1;durP2;ratioP2;P2;SDS_P1;SDS_P2;PMS_P1;PMS_P2;Temp;Humidity;BMP_temperature;BMP_pressure;BME280_temperature;BME280_humidity;BME280_pressure;Samples;Min_cycle;Max_cycle;Signal;HPM_P1;HPM_P2
2022/12/02 00:02:19;;;;;;;85.67;31.10;;;3.70;99.90;;;;;;5011432;28;20040;-52
2022/12/02 00:04:46;;;;;;;84.93;31.80;;;3.80;99.90;;;;;;5012005;28;20116;-51
2022/12/02 00:07:18;;;;;;;85.47;32.93;;;3.70;99.90;;;;;;5011161;28;20121;-53
2022/12/02 00:09:43;;;;;;;86.03;32.50;;;3.70;99.90;;;;;;5011173;28;20034;-52
2022/12/02 00:12:18;;;;;;;85.07;30.80;;;3.70;99.90;;;;;;5023665;23;20048;-50
2022/12/02 00:14:45;;;;;;;86.53;31.30;;;3.70;99.90;;;;;;5011237;28;20034;-48
2022/12/02 00:17:10;;;;;;;86.53;30.87;;;3.70;99.90;;;;;;5011028;28;20402;-47
2022/12/02 00:19:36;;;;;;;85.83;30.67;;;3.60;99.90;;;;;;5009707;28;20034;-49
2022/12/02 00:22:02;;;;;;;92.27;32.57;;;3.60;99.90;;;;;;5011062;28;20038;-50
2022/12/02 00:24:27;;;;;;;83.83;31.33;;;3.60;99.90;;;;;;5011009;28;20061;-50
2022/12/02 00:26:53;;;;;;;81.77;30.33;;;3.60;99.90;;;;;;5010845;28;20030;-46
2022/12/02 00:29:19;;;;;;;81.43;31.63;;;3.60;99.90;;;;;;5010801;28;20033;-50
2022/12/02 00:31:45;;;;;;;76.27;29.57;;;3.60;99.90;;;;;;5009565;28;20026;-46
2022/12/02 00:34:10;;;;;;;80.57;30.60;;;3.60;99.90;;;;;;5010948;28;20049;-51
2022/12/02 00:36:36;;;;;;;80.20;30.27;;;3.60;99.90;;;;;;5010804;28;20514;-51
2022/12/02 00:39:03;;;;;;;79.53;30.73;;;3.60;99.90;;;;;;5010779;28;20046;-49
2022/12/02 00:41:28;;;;;;;70.43;28.23;;;3.60;99.90;;;;;;5010794;28;20034;-49
2022/12/02 00:46:38;;;;;;;72.10;27.50;;;3.50;99.90;;;;;;5010743;28;20494;-49
2022/12/02 00:49:07;;;;;;;70.63;27.13;;;3.40;99.90;;;;;;5010746;28;20087;-49
2022/12/02 00:51:35;;;;;;;76.67;27.80;;;3.40;99.90;;;;;;5009451;28;20041;-50
2022/12/02 00:54:00;;;;;;;83.03;29.93;;;3.40;99.90;;;;;;5009384;28;20060;-50
2022/12/02 00:56:26;;;;;;;81.20;29.43;;;3.40;99.90;;;;;;5010600;28;20026;-50
2022/12/02 00:58:52;;;;;;;88.13;29.00;;;3.30;99.90;;;;;;5009198;28;20030;-52
2022/12/02 01:01:18;;;;;;;95.53;31.23;;;3.20;99.90;;;;;;5009256;28;20117;-52
2022/12/02 01:03:44;;;;;;;82.97;27.77;;;3.20;99.90;;;;;;5010742;28;20432;-51
2022/12/02 01:06:10;;;;;;;89.80;30.80;;;3.10;99.90;;;;;;5009305;28;20030;-47
2022/12/02 01:08:35;;;;;;;83.10;28.60;;;3.10;99.90;;;;;;5010301;28;20033;-47
2022/12/02 01:11:01;;;;;;;85.13;29.47;;;3.20;99.90;;;;;;5009048;28;20034;-46
2022/12/02 01:13:27;;;;;;;87.40;28.40;;;3.20;99.90;;;;;;5010778;28;20045;-46
2022/12/02 01:15:54;;;;;;;89.60;29.53;;;3.10;99.90;;;;;;5010844;28;20112;-49
2022/12/02 01:18:19;;;;;;;88.17;29.70;;;3.10;99.90;;;;;;5010495;28;20037;-47
2022/12/02 01:20:46;;;;;;;89.80;29.40;;;3.10;99.90;;;;;;5010711;28;20364;-47
2022/12/02 01:23:12;;;;;;;88.17;28.90;;;3.10;99.90;;;;;;5009233;28;20037;-49
2022/12/02 01:25:39;;;;;;;89.53;31.13;;;3.10;99.90;;;;;;5010409;28;20034;-51
2022/12/02 01:28:05;;;;;;;82.87;28.60;;;3.10;99.90;;;;;;5008947;28;20081;-48
2022/12/02 01:30:31;;;;;;;84.13;29.60;;;3.10;99.90;;;;;;5008922;28;20030;-49
2022/12/02 01:32:57;;;;;;;90.60;29.60;;;3.10;99.90;;;;;;5010461;28;20479;-46
2022/12/02 01:35:23;;;;;;;82.37;28.93;;;3.20;99.90;;;;;;5009130;28;20065;-45
2022/12/02 01:37:48;;;;;;;80.63;27.53;;;3.20;99.90;;;;;;5010796;28;20384;-48
2022/12/02 01:40:15;;;;;;;83.07;28.10;;;3.20;99.90;;;;;;5013755;28;20034;-45
2022/12/02 01:42:42;;;;;;;84.73;28.83;;;3.20;99.90;;;;;;5014142;28;20032;-50
2022/12/02 01:45:08;;;;;;;81.97;27.83;;;3.20;99.90;;;;;;5012741;28;20030;-46
2022/12/02 01:47:35;;;;;;;75.50;27.07;;;3.20;99.90;;;;;;5012566;28;20644;-48
2022/12/02 01:50:02;;;;;;;73.83;27.70;;;3.20;99.90;;;;;;5013753;28;20030;-49
2022/12/02 01:52:27;;;;;;;76.50;28.57;;;3.20;99.90;;;;;;5013868;28;20026;-46
2022/12/02 01:54:53;;;;;;;77.93;27.77;;;3.20;99.90;;;;;;5013848;28;20479;-46
2022/12/02 01:57:24;;;;;;;77.60;27.67;;;3.20;99.90;;;;;;5013755;28;20463;-46
2022/12/02 01:59:50;;;;;;;78.07;27.30;;;3.20;99.90;;;;;;5012285;28;20030;-46
2022/12/02 02:02:26;;;;;;;71.27;25.97;;;3.20;99.90;;;;;;5012455;28;20194;-45
2022/12/02 02:04:54;;;;;;;70.67;26.93;;;3.30;99.90;;;;;;5012524;28;20509;-46
2022/12/02 02:07:21;;;;;;;;;;;3.30;99.90;;;;;;5012686;28;20034;-46
2022/12/02 02:09:48;;;;;;;73.37;25.83;;;3.40;99.90;;;;;;5012024;28;20290;-46
2022/12/02 02:12:13;;;;;;;79.47;27.93;;;3.30;99.90;;;;;;5012040;28;20034;-45
2022/12/02 02:14:39;;;;;;;72.97;27.67;;;3.30;99.90;;;;;;5013527;28;20041;-47
2022/12/02 02:17:07;;;;;;;70.90;27.43;;;3.30;99.90;;;;;;5011990;28;20029;-45
2022/12/02 02:19:33;;;;;;;64.57;25.43;;;3.30;99.90;;;;;;5011978;28;20038;-45
2022/12/02 02:22:02;;;;;;;64.93;26.13;;;3.30;99.90;;;;;;5011953;28;20049;-48
2022/12/02 02:24:28;;;;;;;67.18;25.17;;;3.30;99.90;;;;;;5012020;28;20030;-49
2022/12/02 02:26:54;;;;;;;70.10;24.03;;;3.30;99.90;;;;;;5012046;28;20041;-54
2022/12/02 02:29:20;;;;;;;66.83;25.93;;;3.30;99.90;;;;;;5011679;28;20113;-51
2022/12/02 02:31:47;;;;;;;66.87;25.43;;;3.30;99.90;;;;;;5011885;28;20556;-51
2022/12/02 02:34:13;;;;;;;67.63;26.13;;;3.30;99.90;;;;;;5011865;28;20062;-51
2022/12/02 02:36:39;;;;;;;61.77;25.53;;;3.30;99.90;;;;;;5011601;28;20120;-50
2022/12/02 02:39:06;;;;;;;57.23;22.90;;;3.40;99.90;;;;;;5012922;28;20026;-51
2022/12/02 02:41:34;;;;;;;56.70;23.43;;;3.40;99.90;;;;;;5011553;28;20026;-51
2022/12/02 02:43:59;;;;;;;65.47;24.27;;;3.40;99.90;;;;;;5011747;28;20049;-45
2022/12/02 02:46:25;;;;;;;60.40;23.60;;;3.40;99.90;;;;;;5011407;28;20561;-46
2022/12/02 02:48:51;;;;;;;59.43;23.17;;;3.40;99.90;;;;;;5012264;28;20387;-45
2022/12/02 02:51:17;;;;;;;57.47;22.23;;;3.40;99.90;;;;;;5010582;28;20057;-48
2022/12/02 02:53:43;;;;;;;56.33;21.90;;;3.40;99.90;;;;;;5011611;28;20557;-47
2022/12/02 02:56:11;;;;;;;53.97;21.07;;;3.40;99.90;;;;;;5011434;28;20510;-46
2022/12/02 02:58:38;;;;;;;58.50;22.47;;;3.40;99.90;;;;;;5011045;28;20026;-46
2022/12/02 03:01:11;;;;;;;50.90;21.77;;;3.40;99.90;;;;;;5012661;28;20113;-46
2022/12/02 03:03:45;;;;;;;53.60;22.00;;;3.40;99.90;;;;;;5012559;28;20044;-46
2022/12/02 03:06:13;;;;;;;54.23;23.83;;;3.40;99.90;;;;;;5011236;28;20088;-46
2022/12/02 03:08:41;;;;;;;53.77;20.77;;;3.40;99.90;;;;;;5010789;28;20037;-49
2022/12/02 03:11:07;;;;;;;56.70;23.57;;;3.50;99.90;;;;;;5012290;28;20577;-46
2022/12/02 03:13:35;;;;;;;54.27;21.67;;;3.50;99.90;;;;;;5012467;28;20116;-46
2022/12/02 03:16:04;;;;;;;57.90;23.03;;;3.50;99.90;;;;;;5012474;28;20036;-45
2022/12/02 03:18:30;;;;;;;58.30;23.43;;;3.50;99.90;;;;;;5012076;28;20492;-45
2022/12/02 03:20:57;;;;;;;57.93;23.43;;;3.40;99.90;;;;;;5012032;28;20065;-45
2022/12/02 03:23:23;;;;;;;57.63;22.20;;;3.40;99.90;;;;;;5012299;28;20053;-48
2022/12/02 03:25:49;;;;;;;60.20;23.77;;;3.50;99.90;;;;;;5010923;28;20470;-48
2022/12/02 03:28:15;;;;;;;59.87;23.30;;;3.40;99.90;;;;;;5012021;28;20064;-47
2022/12/02 03:30:41;;;;;;;56.30;22.87;;;3.40;99.90;;;;;;5011701;28;20112;-46
2022/12/02 03:33:07;;;;;;;59.27;23.73;;;3.40;99.90;;;;;;5012086;28;20105;-47
2022/12/02 03:35:33;;;;;;;57.90;23.37;;;3.40;99.90;;;;;;5011965;28;20097;-47
2022/12/02 03:37:59;;;;;;;62.03;23.07;;;3.40;99.90;;;;;;5011959;28;20034;-47
2022/12/02 03:40:25;;;;;;;62.07;24.47;;;3.40;99.90;;;;;;5011631;28;20030;-47
2022/12/02 03:42:51;;;;;;;63.57;23.80;;;3.40;99.90;;;;;;5011982;28;20025;-46
2022/12/02 03:45:17;;;;;;;59.57;23.27;;;3.40;99.90;;;;;;5011771;28;20400;-53
2022/12/02 03:47:43;;;;;;;59.17;23.17;;;3.40;99.90;;;;;;5011667;28;20042;-47
2022/12/02 03:50:10;;;;;;;57.77;22.93;;;3.30;99.90;;;;;;5011431;28;20045;-45
2022/12/02 03:52:36;;;;;;;64.93;24.33;;;3.30;99.90;;;;;;5011772;28;20398;-50
2022/12/02 03:55:03;;;;;;;65.50;23.70;;;3.30;99.90;;;;;;5011729;28;20479;-46
2022/12/02 03:57:32;;;;;;;60.93;24.07;;;3.30;99.90;;;;;;5011387;28;20036;-47
2022/12/02 03:59:57;;;;;;;59.08;21.83;;;3.30;99.90;;;;;;5011344;28;20120;-50
2022/12/02 04:02:23;;;;;;;66.10;24.23;;;3.30;99.90;;;;;;5011210;28;20176;-51
2022/12/02 04:04:49;;;;;;;71.37;26.10;;;3.30;99.90;;;;;;5011649;28;20050;-47
2022/12/02 04:07:14;;;;;;;64.77;23.83;;;3.30;99.90;;;;;;5011301;28;20036;-46
2022/12/02 04:09:40;;;;;;;64.07;24.83;;;3.30;99.90;;;;;;5011185;28;20186;-47
2022/12/02 04:12:06;;;;;;;64.47;25.10;;;3.30;99.90;;;;;;5011389;28;20034;-48
2022/12/02 04:14:32;;;;;;;67.53;24.97;;;3.30;99.90;;;;;;5011336;28;20116;-50
2022/12/02 04:16:57;;;;;;;71.27;25.57;;;3.30;99.90;;;;;;5011213;28;20034;-46
2022/12/02 04:19:23;;;;;;;64.23;23.37;;;3.30;99.90;;;;;;5011251;28;20030;-46
2022/12/02 04:21:49;;;;;;;72.17;26.90;;;3.30;99.90;;;;;;5011168;28;20084;-47
2022/12/02 04:24:15;;;;;;;66.80;23.77;;;3.30;99.90;;;;;;5011053;28;20194;-52
2022/12/02 04:26:41;;;;;;;69.97;24.73;;;3.30;99.90;;;;;;5010982;28;20069;-49
2022/12/02 04:29:07;;;;;;;68.07;24.70;;;3.30;99.90;;;;;;5009676;28;20057;-48
2022/12/02 04:31:32;;;;;;;69.70;24.83;;;3.30;99.90;;;;;;5011026;28;20037;-51
2022/12/02 04:33:58;;;;;;;64.83;24.20;;;3.20;99.90;;;;;;5011184;28;20498;-49
2022/12/02 04:36:24;;;;;;;70.13;26.20;;;3.30;99.90;;;;;;5010889;28;20080;-49
2022/12/02 04:38:49;;;;;;;68.77;25.93;;;3.30;99.90;;;;;;5010786;28;20076;-47
2022/12/02 04:41:15;;;;;;;71.63;25.97;;;3.30;99.90;;;;;;5010910;28;20033;-50
2022/12/02 04:43:41;;;;;;;69.63;24.97;;;3.30;99.90;;;;;;5010912;28;20036;-52
2022/12/02 04:46:06;;;;;;;71.73;25.30;;;3.30;99.90;;;;;;5011089;28;20398;-52
2022/12/02 04:48:32;;;;;;;73.53;26.87;;;3.30;99.90;;;;;;5010538;28;20114;-48
2022/12/02 04:50:58;;;;;;;64.13;23.93;;;3.30;99.90;;;;;;5010827;28;20384;-47
2022/12/02 04:53:24;;;;;;;72.10;26.73;;;3.20;99.90;;;;;;5010829;28;20033;-53
2022/12/02 04:55:49;;;;;;;70.97;23.97;;;3.20;99.90;;;;;;5010896;28;20029;-50
2022/12/02 04:58:15;;;;;;;67.43;24.97;;;3.20;99.90;;;;;;5010485;28;20026;-49
2022/12/02 05:00:41;;;;;;;76.57;25.80;;;3.30;99.90;;;;;;5010483;28;20053;-51
2022/12/02 05:03:07;;;;;;;61.73;22.93;;;3.20;99.90;;;;;;5010731;28;20045;-48
2022/12/02 05:05:32;;;;;;;68.40;24.13;;;3.20;99.90;;;;;;5010829;28;20125;-51
2022/12/02 05:07:58;;;;;;;69.17;24.13;;;3.20;99.90;;;;;;5010583;28;20026;-52
2022/12/02 05:10:24;;;;;;;68.43;24.60;;;3.20;99.90;;;;;;5010280;28;20034;-49
2022/12/02 05:12:50;;;;;;;74.60;25.37;;;3.20;99.90;;;;;;5011283;28;20391;-51
2022/12/02 05:15:15;;;;;;;71.57;23.30;;;3.20;99.90;;;;;;5014660;28;20036;-48
2022/12/02 05:17:41;;;;;;;63.87;22.43;;;3.20;99.90;;;;;;5014441;28;20068;-49
2022/12/02 05:20:07;;;;;;;71.33;24.60;;;3.20;99.90;;;;;;5014493;28;20029;-49
2022/12/02 05:22:33;;;;;;;69.20;24.13;;;3.20;99.90;;;;;;5014477;28;20041;-47
2022/12/02 05:24:58;;;;;;;60.03;22.67;;;3.20;99.90;;;;;;5014474;28;20030;-50
2022/12/02 05:27:24;;;;;;;65.20;23.33;;;3.20;99.90;;;;;;5014255;28;20116;-50
2022/12/02 05:29:50;;;;;;;70.27;23.47;;;3.20;99.90;;;;;;5014369;28;20104;-49
2022/12/02 05:32:15;;;;;;;66.67;23.97;;;3.20;99.90;;;;;;5014305;28;20022;-47
2022/12/02 05:34:41;;;;;;;67.10;22.93;;;3.20;99.90;;;;;;5014282;28;20471;-51
2022/12/02 05:37:07;;;;;;;68.67;24.27;;;3.20;99.90;;;;;;5014119;28;20030;-52
2022/12/02 05:39:33;;;;;;;70.30;25.13;;;3.20;99.90;;;;;;5014077;28;20038;-51
2022/12/02 05:42:00;;;;;;;70.97;24.53;;;3.20;99.90;;;;;;5013936;28;20065;-49
2022/12/02 05:44:27;;;;;;;74.13;26.23;;;3.30;99.90;;;;;;5014079;28;20038;-50
2022/12/02 05:46:59;;;;;;;74.93;25.67;;;3.20;99.90;;;;;;5013782;28;20125;-49
2022/12/02 05:49:25;;;;;;;69.93;25.27;;;3.30;99.90;;;;;;5013875;28;20121;-49
2022/12/02 05:51:55;;;;;;;76.80;24.07;;;3.20;99.90;;;;;;5013858;28;20117;-48
2022/12/02 05:54:20;;;;;;;70.90;24.10;;;3.20;99.90;;;;;;5013823;28;20109;-51
2022/12/02 05:56:47;;;;;;;73.00;24.80;;;3.20;99.90;;;;;;5013679;28;20125;-49
2022/12/02 05:59:16;;;;;;;74.00;23.70;;;3.20;99.90;;;;;;5013883;28;20037;-51
2022/12/02 06:01:45;;;;;;;74.32;24.70;;;3.10;99.90;;;;;;5013685;28;20026;-51
2022/12/02 06:04:25;;;;;;;71.40;23.77;;;3.20;99.90;;;;;;5013803;28;20084;-49
2022/12/02 06:06:53;;;;;;;72.30;23.30;;;3.10;99.90;;;;;;5013515;28;20396;-51
2022/12/02 06:09:31;;;;;;;69.67;23.03;;;3.10;99.90;;;;;;5013529;28;20104;-51
2022/12/02 06:12:00;;;;;;;67.95;23.65;;;3.10;99.90;;;;;;5024017;23;20057;-53
2022/12/02 06:14:31;;;;;;;63.20;21.27;;;3.10;99.90;;;;;;5013664;28;20053;-53
2022/12/02 06:17:00;;;;;;;60.63;22.03;;;3.10;99.90;;;;;;5013439;28;20095;-53
2022/12/02 06:19:30;;;;;;;65.53;20.77;;;3.10;99.90;;;;;;5013723;28;20463;-52
2022/12/02 06:21:59;;;;;;;63.43;21.10;;;3.10;99.90;;;;;;5013507;28;20435;-53
2022/12/02 06:24:31;;;;;;;61.38;20.63;;;3.10;99.90;;;;;;5013199;28;20485;-52
2022/12/02 06:26:59;;;;;;;63.67;20.47;;;3.00;99.90;;;;;;5013275;28;20128;-52
2022/12/02 06:29:28;;;;;;;58.33;20.40;;;3.00;99.90;;;;;;5013091;28;20388;-54
2022/12/02 06:31:55;;;;;;;51.97;16.90;;;3.00;99.90;;;;;;5013045;28;20030;-53
2022/12/02 06:34:52;;;;;;;59.33;20.03;;;3.00;99.90;;;;;;5013022;28;20037;-51
2022/12/02 06:37:21;;;;;;;61.03;19.83;;;3.00;99.90;;;;;;5013455;28;20034;-53
2022/12/02 06:39:52;;;;;;;58.83;20.83;;;3.00;99.90;;;;;;5012885;28;20038;-53
2022/12/02 06:42:29;;;;;;;58.50;20.17;;;3.10;99.90;;;;;;5012902;28;20474;-53
2022/12/02 06:45:12;;;;;;;57.37;19.70;;;3.10;99.90;;;;;;5012912;28;20034;-51
2022/12/02 06:47:40;;;;;;;60.67;20.83;;;3.10;99.90;;;;;;5012892;28;20148;-52
2022/12/02 06:50:06;;;;;;;60.53;20.87;;;3.10;99.90;;;;;;5012647;28;20044;-51
2022/12/02 06:52:38;;;;;;;68.83;21.77;;;3.10;99.90;;;;;;5012561;28;20029;-52
2022/12/02 06:55:23;;;;;;;70.00;21.67;;;3.00;99.90;;;;;;5012779;28;20513;-50
2022/12/02 06:57:49;;;;;;;66.10;22.23;;;3.00;99.90;;;;;;5011215;28;20033;-52
2022/12/02 07:00:15;;;;;;;73.90;24.23;;;3.00;99.90;;;;;;5012634;28;20405;-53
2022/12/02 07:02:41;;;;;;;71.53;23.77;;;3.00;99.90;;;;;;5012563;28;20117;-51
2022/12/02 07:05:15;;;;;;;75.57;23.33;;;3.00;99.90;;;;;;5012474;28;20046;-51
2022/12/02 07:07:41;;;;;;;83.43;25.37;;;2.90;99.90;;;;;;5012463;28;20446;-53
2022/12/02 07:10:18;;;;;;;76.87;25.13;;;2.90;99.90;;;;;;5012135;28;20073;-53
2022/12/02 07:12:45;;;;;;;79.10;25.90;;;3.00;99.90;;;;;;5012275;28;20084;-52
2022/12/02 07:15:31;;;;;;;80.87;24.17;;;2.90;99.90;;;;;;5012409;28;20087;-52
2022/12/02 07:18:18;;;;;;;77.03;24.10;;;3.00;99.90;;;;;;5012137;28;20034;-49
2022/12/02 07:20:46;;;;;;;78.43;24.30;;;3.00;99.90;;;;;;5011967;28;20049;-52
2022/12/02 07:23:20;;;;;;;83.17;26.83;;;3.00;99.90;;;;;;5012570;28;20037;-52
2022/12/02 07:25:51;;;;;;;88.83;27.40;;;3.00;99.90;;;;;;5012192;28;20042;-52
2022/12/02 07:28:25;;;;;;;91.10;27.47;;;2.90;99.90;;;;;;5011845;28;20026;-53
2022/12/02 07:30:56;;;;;;;87.37;27.67;;;2.90;99.90;;;;;;5011738;28;20068;-53
2022/12/02 07:33:22;;;;;;;84.87;27.30;;;2.90;99.90;;;;;;5012044;28;20018;-53
2022/12/02 07:35:48;;;;;;;85.13;27.23;;;2.90;99.90;;;;;;5011360;28;20113;-50
2022/12/02 07:38:13;;;;;;;89.00;27.80;;;3.00;99.90;;;;;;5011782;28;20498;-48
2022/12/02 07:40:41;;;;;;;88.17;29.17;;;3.00;99.90;;;;;;5011529;28;20072;-50
2022/12/02 07:43:08;;;;;;;85.70;28.17;;;3.00;99.90;;;;;;5011815;28;20095;-52
2022/12/02 07:45:33;;;;;;;83.40;27.83;;;3.00;99.90;;;;;;5011908;28;20041;-52
2022/12/02 07:47:59;;;;;;;81.23;26.83;;;3.00;99.90;;;;;;5011584;28;20486;-52
2022/12/02 07:50:25;;;;;;;84.80;27.73;;;3.00;99.90;;;;;;5011667;28;20435;-52
2022/12/02 07:52:51;;;;;;;79.30;27.83;;;3.00;99.90;;;;;;5011641;28;20479;-51
2022/12/02 07:55:17;;;;;;;93.77;29.97;;;3.00;99.90;;;;;;5011556;28;20034;-50
2022/12/02 07:57:42;;;;;;;94.37;30.07;;;3.00;99.90;;;;;;5011316;28;20065;-50
2022/12/02 08:00:09;;;;;;;89.33;30.53;;;3.00;99.90;;;;;;5011508;28;20056;-47
2022/12/02 08:02:38;;;;;;;93.53;30.20;;;3.00;99.90;;;;;;5012059;28;20057;-48
2022/12/02 08:05:04;;;;;;;93.03;30.07;;;3.00;99.90;;;;;;5011392;28;20034;-48
2022/12/02 08:07:30;;;;;;;91.67;28.03;;;3.00;99.90;;;;;;5011193;28;20036;-48
2022/12/02 08:09:55;;;;;;;83.10;29.50;;;3.00;99.90;;;;;;5011123;28;20030;-49
2022/12/02 08:12:21;;;;;;;97.33;29.70;;;3.00;99.90;;;;;;5011184;28;20025;-51
2022/12/02 08:14:47;;;;;;;81.17;27.17;;;3.00;99.90;;;;;;5011270;28;20029;-52
2022/12/02 08:17:12;;;;;;;88.87;28.43;;;3.00;99.90;;;;;;5011145;28;20030;-51
2022/12/02 08:19:40;;;;;;;88.47;29.63;;;3.00;99.90;;;;;;5010978;28;20120;-51
2022/12/02 08:22:06;;;;;;;87.17;27.83;;;3.00;99.90;;;;;;5011076;28;20375;-53
2022/12/02 08:24:32;;;;;;;86.67;27.57;;;3.00;99.90;;;;;;5010994;28;20030;-51
2022/12/02 08:26:57;;;;;;;81.97;27.17;;;3.00;99.90;;;;;;5010894;28;20501;-52
2022/12/02 08:29:23;;;;;;;90.17;27.87;;;3.00;99.90;;;;;;5010834;28;20033;-54
2022/12/02 08:31:49;;;;;;;88.77;29.13;;;3.10;99.90;;;;;;5010859;28;20030;-53
2022/12/02 08:34:15;;;;;;;82.63;29.07;;;3.00;99.90;;;;;;5011019;28;20029;-53
2022/12/02 08:36:40;;;;;;;88.80;29.50;;;3.00;99.90;;;;;;5010875;28;20045;-53
2022/12/02 08:39:06;;;;;;;80.47;28.47;;;3.00;99.90;;;;;;5010770;28;20029;-53
2022/12/02 08:41:36;;;;;;;83.13;27.70;;;3.00;99.90;;;;;;5010826;28;20453;-55
2022/12/02 08:44:03;;;;;;;79.47;27.73;;;3.10;99.90;;;;;;5010809;28;20072;-50
2022/12/02 08:46:29;;;;;;;78.37;27.87;;;3.10;99.90;;;;;;5010570;28;20034;-51
2022/12/02 08:48:55;;;;;;;75.70;27.43;;;3.10;99.90;;;;;;5010792;28;20045;-49
2022/12/02 08:51:21;;;;;;;78.37;27.13;;;3.10;99.90;;;;;;5010780;28;20463;-49
2022/12/02 08:53:46;;;;;;;77.77;26.73;;;3.10;99.90;;;;;;5009307;28;20124;-49
2022/12/02 08:56:12;;;;;;;79.90;27.20;;;3.20;99.90;;;;;;5010965;28;20037;-48
2022/12/02 08:58:38;;;;;;;79.47;27.90;;;3.20;99.90;;;;;;5010383;28;20041;-53
2022/12/02 09:01:04;;;;;;;78.90;26.57;;;3.10;99.90;;;;;;5010505;28;20392;-49
2022/12/02 09:03:30;;;;;;;78.83;27.87;;;3.10;99.90;;;;;;5010618;28;20030;-50
2022/12/02 09:05:55;;;;;;;76.33;26.63;;;3.10;99.90;;;;;;5010578;28;20037;-48
2022/12/02 09:08:21;;;;;;;68.77;25.50;;;3.20;99.90;;;;;;5010330;28;20053;-48
2022/12/02 09:10:47;;;;;;;77.00;26.20;;;3.20;99.90;;;;;;5010377;28;20041;-49
2022/12/02 09:13:13;;;;;;;69.17;23.93;;;3.20;99.90;;;;;;5010750;28;20109;-51
2022/12/02 09:15:38;;;;;;;73.00;26.40;;;3.30;99.90;;;;;;5010540;28;20378;-51
2022/12/02 09:18:04;;;;;;;76.37;27.27;;;3.30;99.90;;;;;;5010480;28;20372;-48
2022/12/02 09:20:30;;;;;;;71.77;26.30;;;3.30;99.90;;;;;;5010336;28;20030;-54
2022/12/02 09:22:55;;;;;;;69.43;26.10;;;3.30;99.90;;;;;;5010387;28;20034;-48
2022/12/02 09:25:21;;;;;;;66.73;25.50;;;3.30;99.90;;;;;;5010327;28;20034;-52
2022/12/02 09:27:47;;;;;;;68.87;24.83;;;3.30;99.90;;;;;;5010143;28;20026;-54
2022/12/02 09:30:14;;;;;;;61.53;23.77;;;3.40;99.90;;;;;;5010264;28;20032;-53
2022/12/02 09:32:40;;;;;;;66.37;25.37;;;3.40;99.90;;;;;;5010394;28;20034;-53
2022/12/02 09:35:06;;;;;;;68.30;25.63;;;3.40;99.90;;;;;;5010428;28;20029;-51
2022/12/02 09:37:32;;;;;;;68.00;26.27;;;3.30;99.90;;;;;;5010112;28;20034;-53
2022/12/02 09:39:58;;;;;;;69.53;25.30;;;3.30;99.90;;;;;;5010359;28;20050;-54
2022/12/02 09:42:24;;;;;;;63.43;25.90;;;3.30;99.90;;;;;;5010178;28;20084;-53
2022/12/02 09:44:50;;;;;;;64.87;24.77;;;3.40;99.90;;;;;;5010244;28;20144;-53
2022/12/02 09:47:18;;;;;;;62.37;25.03;;;3.30;99.90;;;;;;5010023;28;20509;-53
2022/12/02 09:49:44;;;;;;;62.57;23.63;;;3.30;99.90;;;;;;5010037;28;20026;-52
2022/12/02 09:52:15;;;;;;;61.03;25.00;;;3.40;99.90;;;;;;5010120;28;20034;-52
2022/12/02 09:54:42;;;;;;;65.77;26.10;;;3.40;99.90;;;;;;5010334;28;20033;-53
2022/12/02 09:57:14;;;;;;;57.30;24.73;;;3.40;99.90;;;;;;5009988;28;20033;-53
2022/12/02 09:59:40;;;;;;;60.07;25.47;;;3.40;99.90;;;;;;5011733;28;20471;-53
2022/12/02 10:02:28;;;;;;;55.60;24.27;;;3.40;99.90;;;;;;5013680;28;20467;-53
2022/12/02 10:04:59;;;;;;;62.67;25.67;;;3.30;99.90;;;;;;5013687;28;20475;-51
2022/12/02 10:07:25;;;;;;;55.47;24.10;;;3.30;99.90;;;;;;5013593;28;20026;-50
2022/12/02 10:09:51;;;;;;;59.83;26.07;;;3.30;99.90;;;;;;5013419;28;20483;-52
2022/12/02 10:12:17;;;;;;;59.00;24.13;;;3.30;99.90;;;;;;5013511;28;20388;-53
2022/12/02 10:14:48;;;;;;;61.20;25.73;;;3.30;99.90;;;;;;5013494;28;20021;-50
2022/12/02 10:17:19;;;;;;;61.23;25.23;;;3.30;99.90;;;;;;5013269;28;20157;-54
2022/12/02 10:19:46;;;;;;;59.97;25.10;;;3.40;99.90;;;;;;5012192;28;20041;-53
2022/12/02 10:22:18;;;;;;;62.57;26.67;;;3.40;99.90;;;;;;5013788;28;20401;-51
2022/12/02 10:24:43;;;;;;;60.73;24.90;;;3.40;99.90;;;;;;5013335;28;20025;-53
2022/12/02 10:27:23;;;;;;;58.27;24.80;;;3.40;99.90;;;;;;5013141;28;20033;-53
2022/12/02 10:29:49;;;;;;;63.87;26.40;;;3.40;99.90;;;;;;5013390;28;20030;-53
2022/12/02 10:32:27;;;;;;;61.63;25.10;;;3.50;99.90;;;;;;5013299;28;20490;-53
2022/12/02 10:35:08;;;;;;;62.88;25.13;;;3.40;99.90;;;;;;5013401;28;20033;-53
2022/12/02 10:37:35;;;;;;;59.33;24.73;;;3.40;99.90;;;;;;5013005;28;20037;-53
2022/12/02 10:40:21;;;;;;;59.10;24.40;;;3.40;99.90;;;;;;5012707;28;20041;-54
2022/12/02 10:43:05;;;;;;;59.67;24.87;;;3.40;99.90;;;;;;5012985;28;20084;-51
2022/12/02 10:45:30;;;;;;;65.33;25.70;;;3.50;99.90;;;;;;5012908;28;20550;-52
2022/12/02 10:48:16;;;;;;;64.60;25.63;;;3.50;99.90;;;;;;5012744;28;20116;-52
2022/12/02 10:50:43;;;;;;;59.93;25.90;;;3.40;99.90;;;;;;5012569;28;20049;-50
2022/12/02 10:53:15;;;;;;;56.37;21.73;;;3.40;99.90;;;;;;5013008;28;20121;-53
2022/12/02 10:55:41;;;;;;;62.77;24.53;;;3.40;99.90;;;;;;5012771;28;20044;-52
2022/12/02 10:58:13;;;;;;;59.43;24.60;;;3.50;99.90;;;;;;5011217;28;20402;-53
2022/12/02 11:00:39;;;;;;;56.67;24.23;;;3.50;99.90;;;;;;5012351;28;20490;-52
2022/12/02 11:03:05;;;;;;;56.03;24.63;;;3.60;99.90;;;;;;5012599;28;20065;-54
2022/12/02 11:05:34;;;;;;;55.17;23.03;;;3.60;99.90;;;;;;5012747;28;20034;-53
2022/12/02 11:08:01;;;;;;;60.05;24.00;;;3.60;99.90;;;;;;5012365;28;20029;-52
2022/12/02 11:10:32;;;;;;;58.83;25.10;;;3.60;99.90;;;;;;5011104;28;20038;-53
2022/12/02 11:13:02;;;;;;;61.90;25.40;;;3.60;99.90;;;;;;5012226;28;20041;-53
2022/12/02 11:15:48;;;;;;;60.77;24.83;;;3.60;99.90;;;;;;5012421;28;20052;-52
2022/12/02 11:18:25;;;;;;;62.63;26.93;;;3.50;99.90;;;;;;5012137;28;20095;-53
2022/12/02 11:21:14;;;;;;;64.43;26.50;;;3.50;99.90;;;;;;5011963;28;20026;-53
2022/12/02 11:23:40;;;;;;;64.60;24.70;;;3.50;99.90;;;;;;5012129;28;20026;-52
2022/12/02 11:26:13;;;;;;;64.00;27.57;;;3.50;99.90;;;;;;5012274;28;20049;-50
2022/12/02 11:29:13;;;;;;;58.53;24.83;;;3.50;99.90;;;;;;5010534;28;20469;-52
2022/12/02 11:31:39;;;;;;;63.43;25.27;;;3.50;99.90;;;;;;5012022;28;20028;-47
2022/12/02 11:34:23;;;;;;;67.80;27.23;;;3.50;99.90;;;;;;5011923;28;20026;-50
2022/12/02 11:37:27;;;;;;;63.00;27.20;;;3.40;99.90;;;;;;5011903;28;20161;-47
2022/12/02 11:39:55;;;;;;;66.23;26.80;;;3.50;99.90;;;;;;5011490;28;20037;-47
2022/12/02 11:42:25;;;;;;;65.77;27.73;;;3.40;99.90;;;;;;5011650;28;20030;-47
2022/12/02 11:44:52;;;;;;;68.27;26.63;;;3.40;99.90;;;;;;5011823;28;20081;-48
2022/12/02 11:47:29;;;;;;;69.50;28.17;;;3.40;99.90;;;;;;5011566;28;20129;-50
2022/12/02 11:50:15;;;;;;;70.13;27.30;;;3.40;99.90;;;;;;5011498;28;20112;-50
2022/12/02 11:52:44;;;;;;;69.03;26.50;;;3.50;99.90;;;;;;5011592;28;20033;-49
2022/12/02 11:55:20;;;;;;;71.00;28.02;;;3.50;99.90;;;;;;5011716;28;20505;-47
2022/12/02 11:57:47;;;;;;;68.10;27.43;;;3.70;99.90;;;;;;5011468;28;20104;-47
2022/12/02 12:00:28;;;;;;;72.90;28.23;;;3.70;99.90;;;;;;5011470;28;20309;-52
2022/12/02 12:03:16;;;;;;;71.23;29.53;;;3.70;99.90;;;;;;5010246;28;20486;-51
2022/12/02 12:06:14;;;;;;;66.70;27.97;;;3.70;99.90;;;;;;5011488;28;20037;-52
2022/12/02 12:08:43;;;;;;;67.63;26.67;;;3.70;99.90;;;;;;5011135;28;20025;-49
2022/12/02 12:14:18;;;;;;;77.07;28.73;;;3.80;99.90;;;;;;4950745;28;19929;-50
2022/12/02 12:16:46;;;;;;;68.23;28.37;;;3.80;99.90;;;;;;4953008;28;20035;-46
2022/12/02 12:19:11;;;;;;;64.87;28.93;;;3.70;99.90;;;;;;4952854;28;20036;-51
2022/12/02 12:21:44;;;;;;;69.33;26.80;;;3.70;99.90;;;;;;4957237;28;20035;-51
2022/12/02 12:24:16;;;;;;;66.87;27.90;;;3.60;99.90;;;;;;4972155;28;20479;-50
2022/12/02 12:26:43;;;;;;;76.00;28.67;;;3.60;99.90;;;;;;4971845;28;20117;-47
2022/12/02 12:29:09;;;;;;;72.07;29.17;;;3.50;99.90;;;;;;4971999;28;20160;-51
2022/12/02 12:31:35;;;;;;;70.87;29.37;;;3.50;99.90;;;;;;4972006;28;20061;-47
2022/12/02 12:34:01;;;;;;;71.67;28.83;;;3.50;99.90;;;;;;4972252;28;20150;-50
2022/12/02 12:36:27;;;;;;;66.37;28.00;;;3.30;99.90;;;;;;4971818;28;20038;-49
2022/12/02 12:38:52;;;;;;;73.07;29.07;;;3.30;99.90;;;;;;4971938;28;20038;-49
2022/12/02 12:41:18;;;;;;;71.70;29.30;;;3.30;99.90;;;;;;4971805;28;20546;-49
2022/12/02 12:43:44;;;;;;;68.80;28.53;;;3.30;99.90;;;;;;4972098;28;20085;-50
2022/12/02 12:46:10;;;;;;;71.00;28.97;;;3.30;99.90;;;;;;4971834;28;20066;-48
2022/12/02 12:48:36;;;;;;;72.53;28.87;;;3.40;99.90;;;;;;4971525;28;20031;-49
2022/12/02 12:51:01;;;;;;;71.30;28.37;;;3.40;99.90;;;;;;4971728;28;20042;-53